createdAt,value
2019-02-12T00:01:08.419Z,89.00
2019-02-12T00:03:53.188Z,88.80
2019-02-12T00:06:37.666Z,89.10
2019-02-12T00:09:22.052Z,88.60
2019-02-12T00:12:06.788Z,88.10
2019-02-12T00:14:51.455Z,88.60
2019-02-12T00:17:36.180Z,88.40
2019-02-12T00:20:21.222Z,88.20
2019-02-12T00:23:05.637Z,88.70
2019-02-12T00:25:50.114Z,89.90
2019-02-12T00:28:34.645Z,89.20
2019-02-12T00:31:19.264Z,89.80
2019-02-12T00:34:03.694Z,89.30
2019-02-12T00:36:48.393Z,89.40
2019-02-12T00:39:33.335Z,89.20
2019-02-12T00:42:18.096Z,89.10
2019-02-12T00:45:09.665Z,88.20
2019-02-12T00:47:54.289Z,89.60
2019-02-12T00:50:38.913Z,89.40
2019-02-12T00:53:23.790Z,89.00
2019-02-12T00:56:08.609Z,89.20
2019-02-12T00:58:53.134Z,90.00
2019-02-12T01:01:37.730Z,90.20
2019-02-12T01:04:22.281Z,90.40
2019-02-12T01:07:06.931Z,90.40
2019-02-12T01:09:51.335Z,91.00
2019-02-12T01:12:36.000Z,90.80
2019-02-12T01:15:20.482Z,91.20
2019-02-12T01:18:04.916Z,91.40
2019-02-12T01:20:49.501Z,91.50
2019-02-12T01:23:34.159Z,92.00
2019-02-12T01:26:19.401Z,92.20
2019-02-12T01:29:04.325Z,92.50
2019-02-12T01:31:49.182Z,92.80
2019-02-12T01:34:33.848Z,93.00
2019-02-12T01:37:18.661Z,93.00
2019-02-12T01:40:04.480Z,93.60
2019-02-12T01:42:49.206Z,93.60
2019-02-12T01:45:33.815Z,94.20
2019-02-12T01:48:18.369Z,94.20
2019-02-12T01:51:02.992Z,94.50
2019-02-12T01:53:47.476Z,94.50
2019-02-12T01:56:32.038Z,95.00
2019-02-12T01:59:16.640Z,95.60
2019-02-12T02:02:01.179Z,96.00
2019-02-12T02:04:45.604Z,96.90
2019-02-12T02:07:30.288Z,96.90
2019-02-12T02:10:16.004Z,97.00
2019-02-12T02:13:00.819Z,97.20
2019-02-12T02:15:45.414Z,97.40
2019-02-12T02:18:30.095Z,97.60
2019-02-12T02:21:14.915Z,97.80
2019-02-12T02:23:59.544Z,98.00
2019-02-12T02:26:44.085Z,98.10
2019-02-12T02:29:28.745Z,98.20
2019-02-12T02:32:13.333Z,98.20
2019-02-12T02:34:57.963Z,98.40
2019-02-12T02:37:42.515Z,98.80
2019-02-12T02:40:27.050Z,98.90
2019-02-12T02:43:11.670Z,99.10
2019-02-12T02:45:56.195Z,99.50
2019-02-12T02:48:40.596Z,99.50
2019-02-12T02:51:25.049Z,99.50
2019-02-12T02:54:09.495Z,99.80
2019-02-12T02:56:53.988Z,99.90
2019-02-12T02:59:38.510Z,99.80
2019-02-12T03:02:23.333Z,99.80
2019-02-12T03:05:09.620Z,99.90
2019-02-12T03:07:54.528Z,99.90
2019-02-12T03:10:39.195Z,99.90
2019-02-12T03:13:23.817Z,99.90
2019-02-12T03:16:08.178Z,99.90
2019-02-12T03:18:52.808Z,99.90
2019-02-12T03:21:37.350Z,99.90
2019-02-12T03:24:21.965Z,99.90
2019-02-12T03:27:06.554Z,99.90
2019-02-12T03:29:50.950Z,99.70
2019-02-12T03:32:35.667Z,99.60
2019-02-12T03:35:20.664Z,99.90
2019-02-12T03:38:05.314Z,99.90
2019-02-12T03:40:49.939Z,99.90
2019-02-12T03:43:34.695Z,99.90
2019-02-12T03:46:19.669Z,99.90
2019-02-12T03:49:04.154Z,99.90
2019-02-12T03:51:48.827Z,99.90
2019-02-12T03:54:33.814Z,99.90
2019-02-12T03:57:18.580Z,99.90
2019-02-12T04:00:06.904Z,99.90
2019-02-12T04:03:00.188Z,99.90
2019-02-12T04:05:45.053Z,99.90
2019-02-12T04:08:29.638Z,99.90
2019-02-12T04:11:14.123Z,99.90
2019-02-12T04:13:58.757Z,99.90
2019-02-12T04:16:43.662Z,99.90
2019-02-12T04:19:28.273Z,99.90
2019-02-12T04:22:21.908Z,99.90
2019-02-12T04:24:59.572Z,99.90
2019-02-12T04:27:44.352Z,99.90
2019-02-12T04:30:29.125Z,99.90
2019-02-12T04:33:13.706Z,99.90
2019-02-12T04:35:58.518Z,99.90
2019-02-12T04:38:43.255Z,99.90
2019-02-12T04:41:28.164Z,99.90
2019-02-12T04:44:12.835Z,99.90
2019-02-12T04:46:57.490Z,99.90
2019-02-12T04:49:42.135Z,99.90
2019-02-12T04:52:31.919Z,99.90
2019-02-12T04:55:13.407Z,99.90
2019-02-12T04:57:58.298Z,99.90
2019-02-12T05:00:42.943Z,99.90
2019-02-12T05:03:28.435Z,99.90
2019-02-12T05:06:12.957Z,99.90
2019-02-12T05:09:09.812Z,99.90
2019-02-12T05:11:54.327Z,99.90
2019-02-12T05:14:42.599Z,99.90
2019-02-12T05:17:27.489Z,99.90
2019-02-12T05:20:12.993Z,99.90
2019-02-12T05:22:57.512Z,99.90
2019-02-12T05:25:41.974Z,99.90
2019-02-12T05:28:26.524Z,99.90
2019-02-12T05:31:11.138Z,99.90
2019-02-12T05:33:55.779Z,99.90
2019-02-12T05:36:42.993Z,99.90
2019-02-12T05:39:27.988Z,99.90
2019-02-12T05:42:12.359Z,99.90
2019-02-12T05:44:56.888Z,99.90
2019-02-12T05:47:41.523Z,99.90
2019-02-12T05:50:26.429Z,99.90
2019-02-12T05:53:11.027Z,99.90
2019-02-12T05:55:55.565Z,99.90
2019-02-12T05:58:40.792Z,99.90
2019-02-12T06:01:25.327Z,99.90
2019-02-12T06:04:10.464Z,99.90
2019-02-12T06:06:55.380Z,99.90
2019-02-12T06:09:40.009Z,99.90
2019-02-12T06:12:24.798Z,99.90
2019-02-12T06:15:09.903Z,99.90
2019-02-12T06:17:54.425Z,99.90
2019-02-12T06:20:39.389Z,99.90
2019-02-12T06:23:24.319Z,99.90
2019-02-12T06:26:08.878Z,99.90
2019-02-12T06:28:53.776Z,99.90
2019-02-12T06:31:38.258Z,99.90
2019-02-12T06:34:22.913Z,99.90
2019-02-12T06:37:09.440Z,99.90
2019-02-12T06:39:54.278Z,99.90
2019-02-12T06:42:38.838Z,99.90
2019-02-12T06:45:23.287Z,99.90
2019-02-12T06:48:08.338Z,99.90
2019-02-12T06:50:52.902Z,99.90
2019-02-12T06:53:37.613Z,99.90
2019-02-12T06:56:22.022Z,99.90
2019-02-12T06:59:06.869Z,99.90
2019-02-12T07:01:55.577Z,99.90
2019-02-12T07:04:40.422Z,99.90
2019-02-12T07:07:32.338Z,99.90
2019-02-12T07:10:17.368Z,99.90
2019-02-12T07:13:22.894Z,99.90
2019-02-12T07:16:14.555Z,99.90
2019-02-12T07:19:14.772Z,99.90
2019-02-12T07:22:12.428Z,99.90
2019-02-12T07:25:09.682Z,99.90
2019-02-12T07:28:03.613Z,99.90
2019-02-12T07:31:10.901Z,99.90
2019-02-12T07:34:11.577Z,99.90
2019-02-12T07:37:00.163Z,99.90
2019-02-12T07:40:14.636Z,99.90
2019-02-12T07:43:09.061Z,99.90
2019-02-12T07:46:00.652Z,99.90
2019-02-12T07:48:55.284Z,99.90
2019-02-12T07:51:46.854Z,99.90
2019-02-12T07:54:58.982Z,99.90
2019-02-12T07:58:05.862Z,99.90
2019-02-12T08:01:00.301Z,99.90
2019-02-12T08:04:13.437Z,99.90
2019-02-12T08:07:21.657Z,99.90
2019-02-12T08:10:19.385Z,99.90
2019-02-12T08:13:14.166Z,99.90
2019-02-12T08:16:18.562Z,99.90
2019-02-12T08:19:13.347Z,99.90
2019-02-12T08:22:26.161Z,99.90
2019-02-12T08:25:30.519Z,99.90
2019-02-12T08:28:41.307Z,99.90
2019-02-12T08:31:52.184Z,99.90
2019-02-12T08:35:03.870Z,99.90
2019-02-12T08:38:01.559Z,99.90
2019-02-12T08:41:02.416Z,99.90
2019-02-12T08:44:12.253Z,99.90
2019-02-12T08:47:18.604Z,99.90
2019-02-12T08:50:19.426Z,99.90
2019-02-12T08:53:26.127Z,99.90
2019-02-12T08:56:32.869Z,99.90
2019-02-12T08:59:27.252Z,99.90
2019-02-12T09:02:35.471Z,99.90
2019-02-12T09:05:34.161Z,99.90
2019-02-12T09:08:28.691Z,99.90
2019-02-12T09:11:34.733Z,99.90
2019-02-12T09:14:31.571Z,99.90
2019-02-12T09:17:25.621Z,99.90
2019-02-12T09:20:26.017Z,99.90
2019-02-12T09:23:23.362Z,99.90
2019-02-12T09:26:17.700Z,99.90
2019-02-12T09:29:06.234Z,99.90
2019-02-12T09:31:57.286Z,99.90
2019-02-12T09:34:45.752Z,99.90
2019-02-12T09:37:49.483Z,99.90
2019-02-12T09:40:53.298Z,99.90
2019-02-12T09:43:58.393Z,99.90
2019-02-12T09:46:52.594Z,99.90
2019-02-12T09:49:59.270Z,99.90
2019-02-12T09:52:50.891Z,99.90
2019-02-12T09:55:57.527Z,99.90
2019-02-12T09:58:49.187Z,99.90
2019-02-12T10:02:10.926Z,99.90
2019-02-12T10:05:18.009Z,99.90
2019-02-12T10:08:23.129Z,99.50
2019-02-12T10:11:14.437Z,99.30
2019-02-12T10:14:19.553Z,99.70
2019-02-12T10:17:23.051Z,99.50
2019-02-12T10:20:23.661Z,99.50
2019-02-12T10:23:40.990Z,99.00
2019-02-12T10:26:35.374Z,98.90
2019-02-12T10:29:35.822Z,99.50
2019-02-12T10:32:20.467Z,99.10
2019-02-12T10:35:05.244Z,99.10
2019-02-12T10:37:50.067Z,98.60
2019-02-12T10:40:35.178Z,97.90
2019-02-12T10:43:20.457Z,97.90
2019-02-12T10:46:04.998Z,97.00
2019-02-12T10:48:49.936Z,97.10
2019-02-12T10:51:34.667Z,96.70
2019-02-12T10:54:27.637Z,96.50
2019-02-12T10:57:06.561Z,96.20
2019-02-12T10:59:51.580Z,96.00
2019-02-12T11:02:36.173Z,96.00
2019-02-12T11:05:21.333Z,95.40
2019-02-12T11:08:08.746Z,95.30
2019-02-12T11:10:54.238Z,95.00
2019-02-12T11:13:39.146Z,95.20
2019-02-12T11:16:24.255Z,95.80
2019-02-12T11:19:09.284Z,95.50
2019-02-12T11:21:54.067Z,95.10
2019-02-12T11:24:38.836Z,95.30
2019-02-12T11:27:23.435Z,95.40
2019-02-12T11:30:11.100Z,95.40
2019-02-12T11:32:56.045Z,95.10
2019-02-12T11:35:40.680Z,95.00
2019-02-12T11:38:25.098Z,94.80
2019-02-12T11:41:09.765Z,94.60
2019-02-12T11:43:54.241Z,94.60
2019-02-12T11:46:38.978Z,94.30
2019-02-12T11:49:23.569Z,94.80
2019-02-12T11:52:08.146Z,95.00
2019-02-12T11:54:53.223Z,95.70
2019-02-12T11:57:37.832Z,95.10
2019-02-12T12:00:29.941Z,94.60
2019-02-12T12:03:14.722Z,93.70
2019-02-12T12:05:59.740Z,93.80
2019-02-12T12:08:44.822Z,93.60
2019-02-12T12:11:29.405Z,93.70
2019-02-12T12:14:14.481Z,94.30
2019-02-12T12:16:59.036Z,94.40
2019-02-12T12:19:43.717Z,94.80
2019-02-12T12:22:28.246Z,94.90
2019-02-12T12:25:12.854Z,94.80
2019-02-12T12:27:57.987Z,95.10
2019-02-12T12:30:42.859Z,95.20
2019-02-12T12:33:28.145Z,95.50
2019-02-12T12:36:12.997Z,95.20
2019-02-12T12:38:57.750Z,95.00
2019-02-12T12:41:42.840Z,95.40
2019-02-12T12:44:27.795Z,95.50
2019-02-12T12:47:13.107Z,95.60
2019-02-12T12:49:59.155Z,95.40
2019-02-12T12:52:43.942Z,95.20
2019-02-12T12:55:28.488Z,95.60
2019-02-12T12:58:13.403Z,96.00
2019-02-12T13:00:58.129Z,96.20
2019-02-12T13:03:43.155Z,96.30
2019-02-12T13:06:27.655Z,96.60
2019-02-12T13:09:12.334Z,96.10
2019-02-12T13:11:57.351Z,95.90
2019-02-12T13:14:42.385Z,95.50
2019-02-12T13:17:27.515Z,95.60
2019-02-12T13:20:14.146Z,94.90
2019-02-12T13:22:58.901Z,95.10
2019-02-12T13:25:43.576Z,95.30
2019-02-12T13:28:28.109Z,95.10
2019-02-12T13:31:12.616Z,95.10
2019-02-12T13:33:57.067Z,95.10
2019-02-12T13:36:41.719Z,95.40
2019-02-12T13:39:26.677Z,95.70
2019-02-12T13:42:11.824Z,95.40
2019-02-12T13:44:56.245Z,95.40
2019-02-12T13:47:41.002Z,95.50
2019-02-12T13:50:25.697Z,95.60
2019-02-12T13:53:10.447Z,96.10
2019-02-12T13:55:55.273Z,95.90
2019-02-12T13:58:39.889Z,96.20
2019-02-12T14:01:24.465Z,96.00
2019-02-12T14:04:09.004Z,96.00
2019-02-12T14:06:54.007Z,96.00
2019-02-12T14:09:39.104Z,96.20
2019-02-12T14:12:24.171Z,96.60
2019-02-12T14:15:10.880Z,97.00
2019-02-12T14:17:56.195Z,96.60
2019-02-12T14:20:40.828Z,96.40
2019-02-12T14:23:27.446Z,96.40
2019-02-12T14:26:12.365Z,96.50
2019-02-12T14:28:56.888Z,96.50
2019-02-12T14:31:41.788Z,96.40
2019-02-12T14:34:26.399Z,96.00
2019-02-12T14:37:11.088Z,95.30
2019-02-12T14:39:55.764Z,95.40
2019-02-12T14:42:40.862Z,94.90
2019-02-12T14:45:26.171Z,95.10
2019-02-12T14:48:11.110Z,94.50
2019-02-12T14:50:56.127Z,94.30
2019-02-12T14:53:40.943Z,94.60
2019-02-12T14:56:26.707Z,94.90
2019-02-12T14:59:11.425Z,95.10
2019-02-12T15:01:56.356Z,95.70
2019-02-12T15:04:41.505Z,95.70
2019-02-12T15:07:26.324Z,95.70
2019-02-12T15:10:14.526Z,96.10
2019-02-12T15:12:59.092Z,96.20
2019-02-12T15:15:43.819Z,96.30
2019-02-12T15:18:28.586Z,96.30
2019-02-12T15:21:13.309Z,96.70
2019-02-12T15:23:57.750Z,96.90
2019-02-12T15:26:42.416Z,97.00
2019-02-12T15:29:27.259Z,97.10
2019-02-12T15:32:11.687Z,97.10
2019-02-12T15:34:56.323Z,97.00
2019-02-12T15:37:41.091Z,97.00
2019-02-12T15:40:25.998Z,96.90
2019-02-12T15:43:10.971Z,96.90
2019-02-12T15:45:55.649Z,96.90
2019-02-12T15:48:40.575Z,96.90
2019-02-12T15:51:25.491Z,96.30
2019-02-12T15:54:10.276Z,96.40
2019-02-12T15:56:54.906Z,95.40
2019-02-12T15:59:39.666Z,95.10
2019-02-12T16:02:24.157Z,95.10
2019-02-12T16:05:10.409Z,94.60
2019-02-12T16:07:55.609Z,94.20
2019-02-12T16:10:41.819Z,94.00
2019-02-12T16:13:26.439Z,94.20
2019-02-12T16:16:11.135Z,94.10
2019-02-12T16:18:55.979Z,93.90
2019-02-12T16:21:40.456Z,94.20
2019-02-12T16:24:25.203Z,93.90
2019-02-12T16:27:09.606Z,93.90
2019-02-12T16:29:54.256Z,94.00
2019-02-12T16:32:38.748Z,93.70
2019-02-12T16:35:23.715Z,93.90
2019-02-12T16:38:08.621Z,93.80
2019-02-12T16:40:53.206Z,93.80
2019-02-12T16:43:37.826Z,93.60
2019-02-12T16:46:23.362Z,93.80
2019-02-12T16:49:08.510Z,93.90
2019-02-12T16:51:52.859Z,94.00
2019-02-12T16:54:37.393Z,94.30
2019-02-12T16:57:21.960Z,94.20
2019-02-12T17:00:12.102Z,94.40
2019-02-12T17:02:56.570Z,94.30
2019-02-12T17:05:41.415Z,94.30
2019-02-12T17:08:26.449Z,94.50
2019-02-12T17:11:11.475Z,94.60
2019-02-12T17:13:56.770Z,94.70
2019-02-12T17:16:41.701Z,94.80
2019-02-12T17:19:26.807Z,94.80
2019-02-12T17:22:11.673Z,94.90
2019-02-12T17:24:56.665Z,95.10
2019-02-12T17:27:41.254Z,95.30
2019-02-12T17:30:25.984Z,95.20
2019-02-12T17:33:10.991Z,95.30
2019-02-12T17:35:55.570Z,95.20
2019-02-12T17:38:40.469Z,95.20
2019-02-12T17:41:25.400Z,95.40
2019-02-12T17:44:10.401Z,95.30
2019-02-12T17:46:54.990Z,95.20
2019-02-12T17:49:40.246Z,95.10
2019-02-12T17:52:24.923Z,95.30
2019-02-12T17:55:10.286Z,95.10
2019-02-12T17:57:55.225Z,95.10
2019-02-12T18:00:41.911Z,95.20
2019-02-12T18:03:26.987Z,95.20
2019-02-12T18:06:11.519Z,95.20
2019-02-12T18:08:55.890Z,95.20
2019-02-12T18:11:41.198Z,95.70
2019-02-12T18:14:26.432Z,95.40
2019-02-12T18:17:11.825Z,95.60
2019-02-12T18:19:56.756Z,95.50
2019-02-12T18:22:41.733Z,95.40
2019-02-12T18:25:26.577Z,95.50
2019-02-12T18:28:11.748Z,95.60
2019-02-12T18:30:56.689Z,95.70
2019-02-12T18:33:41.603Z,95.60
2019-02-12T18:36:26.732Z,95.60
2019-02-12T18:39:11.506Z,95.60
2019-02-12T18:41:56.812Z,95.80
2019-02-12T18:44:41.663Z,95.70
2019-02-12T18:47:26.579Z,95.70
2019-02-12T18:50:11.434Z,95.80
2019-02-12T18:52:56.588Z,95.80
2019-02-12T18:55:41.771Z,95.80
2019-02-12T18:58:27.427Z,95.90
2019-02-12T19:01:12.382Z,95.90
2019-02-12T19:03:57.563Z,95.70
2019-02-12T19:06:42.315Z,95.90
2019-02-12T19:09:27.226Z,95.90
2019-02-12T19:12:12.235Z,96.00
2019-02-12T19:14:57.071Z,96.00
2019-02-12T19:17:46.640Z,96.20
2019-02-12T19:20:31.411Z,96.20
2019-02-12T19:23:16.368Z,96.30
2019-02-12T19:26:01.270Z,96.30
2019-02-12T19:28:46.871Z,96.60
2019-02-12T19:31:31.827Z,96.70
2019-02-12T19:34:17.258Z,96.70
2019-02-12T19:37:02.104Z,96.80
2019-02-12T19:39:47.662Z,96.80
2019-02-12T19:42:32.632Z,96.90
2019-02-12T19:45:17.975Z,96.90
2019-02-12T19:48:03.158Z,96.90
2019-02-12T19:50:48.550Z,96.90
2019-02-12T19:53:33.586Z,97.00
2019-02-12T19:56:18.486Z,97.10
2019-02-12T19:59:05.714Z,97.00
2019-02-12T20:01:50.358Z,97.10
2019-02-12T20:04:36.672Z,97.20
2019-02-12T20:07:21.899Z,97.20
2019-02-12T20:10:10.166Z,97.40
2019-02-12T20:12:55.208Z,97.50
2019-02-12T20:15:40.792Z,97.50
2019-02-12T20:18:25.862Z,97.60
2019-02-12T20:21:10.949Z,97.60
2019-02-12T20:23:55.970Z,97.60
2019-02-12T20:26:41.247Z,97.60
2019-02-12T20:29:25.993Z,97.90
2019-02-12T20:32:11.260Z,97.80
2019-02-12T20:34:56.424Z,98.10
2019-02-12T20:37:41.245Z,98.10
2019-02-12T20:40:26.125Z,98.10
2019-02-12T20:43:11.085Z,98.10
2019-02-12T20:45:56.596Z,98.00
2019-02-12T20:48:41.501Z,98.00
2019-02-12T20:51:27.376Z,98.00
2019-02-12T20:54:12.327Z,98.10
2019-02-12T20:56:57.140Z,98.20
2019-02-12T20:59:42.082Z,98.10
2019-02-12T21:02:27.396Z,98.20
2019-02-12T21:05:14.069Z,98.30
2019-02-12T21:07:59.032Z,98.30
2019-02-12T21:10:44.194Z,98.50
2019-02-12T21:13:29.325Z,98.30
2019-02-12T21:16:14.601Z,98.40
2019-02-12T21:18:59.726Z,98.40
2019-02-12T21:21:44.962Z,98.50
2019-02-12T21:24:29.835Z,98.60
2019-02-12T21:27:14.371Z,98.70
2019-02-12T21:29:58.886Z,98.80
2019-02-12T21:32:43.542Z,98.70
2019-02-12T21:35:28.159Z,98.70
2019-02-12T21:38:14.866Z,99.00
2019-02-12T21:40:59.776Z,99.10
2019-02-12T21:43:45.022Z,99.20
2019-02-12T21:46:29.933Z,99.20
2019-02-12T21:49:15.180Z,99.20
2019-02-12T21:52:00.324Z,99.30
2019-02-12T21:54:45.314Z,99.50
2019-02-12T21:57:32.105Z,99.70
2019-02-12T22:00:21.070Z,99.80
2019-02-12T22:03:06.065Z,99.90
2019-02-12T22:05:51.076Z,99.90
2019-02-12T22:08:36.035Z,99.70
2019-02-12T22:11:20.834Z,99.80
2019-02-12T22:14:05.695Z,99.80
2019-02-12T22:16:50.355Z,99.80
2019-02-12T22:19:34.850Z,99.70
2019-02-12T22:22:19.854Z,99.20
2019-02-12T22:25:07.598Z,99.10
2019-02-12T22:27:52.086Z,99.20
2019-02-12T22:30:36.755Z,98.80
2019-02-12T22:33:21.174Z,98.50
2019-02-12T22:36:05.868Z,98.50
2019-02-12T22:38:50.739Z,98.30
2019-02-12T22:41:35.672Z,98.30
2019-02-12T22:44:20.308Z,98.20
2019-02-12T22:47:05.084Z,97.80
2019-02-12T22:49:50.108Z,98.00
2019-02-12T22:52:35.257Z,97.70
2019-02-12T22:55:20.077Z,97.60
2019-02-12T22:58:05.058Z,97.40
2019-02-12T23:00:57.284Z,97.50
2019-02-12T23:03:42.374Z,97.30
2019-02-12T23:06:26.975Z,97.30
2019-02-12T23:09:14.019Z,97.10
2019-02-12T23:11:59.130Z,97.00
2019-02-12T23:14:43.499Z,97.20
2019-02-12T23:17:28.218Z,97.10
2019-02-12T23:20:13.044Z,97.10
2019-02-12T23:22:58.005Z,97.10
2019-02-12T23:25:42.506Z,96.90
2019-02-12T23:28:27.542Z,97.10
2019-02-12T23:31:12.135Z,97.00
2019-02-12T23:33:57.137Z,96.90
2019-02-12T23:36:42.335Z,97.00
2019-02-12T23:39:27.214Z,97.10
2019-02-12T23:42:11.909Z,97.30
2019-02-12T23:44:56.537Z,97.30
2019-02-12T23:47:41.943Z,97.40
2019-02-12T23:50:27.104Z,97.20
2019-02-12T23:53:12.114Z,97.10
2019-02-12T23:55:56.678Z,97.00
2019-02-12T23:58:41.598Z,97.30
